sensor_id;sensor_type;location;lat;lon;timestamp;P1;durP1;ratioP1;P2;durP2;ratioP2
70592;SDS011;58294;42.988;20.338;2023-09-19T00:01:32;15.75;;;12.02;;
70592;SDS011;58294;42.988;20.338;2023-09-19T00:03:58;14.27;;;11.85;;
70592;SDS011;58294;42.988;20.338;2023-09-19T00:06:27;14.57;;;12.38;;
70592;SDS011;58294;42.988;20.338;2023-09-19T00:08:56;14.43;;;12.35;;
70592;SDS011;58294;42.988;20.338;2023-09-19T00:11:24;15.00;;;11.88;;
70592;SDS011;58294;42.988;20.338;2023-09-19T00:13:51;11.88;;;10.68;;
70592;SDS011;58294;42.988;20.338;2023-09-19T00:16:17;15.35;;;11.02;;
70592;SDS011;58294;42.988;20.338;2023-09-19T00:18:44;12.77;;;11.48;;
70592;SDS011;58294;42.988;20.338;2023-09-19T00:21:10;12.18;;;10.65;;
70592;SDS011;58294;42.988;20.338;2023-09-19T00:23:36;11.80;;;10.32;;
70592;SDS011;58294;42.988;20.338;2023-09-19T00:26:02;12.80;;;11.48;;
70592;SDS011;58294;42.988;20.338;2023-09-19T00:28:29;12.88;;;11.50;;
70592;SDS011;58294;42.988;20.338;2023-09-19T00:30:55;12.38;;;10.90;;
70592;SDS011;58294;42.988;20.338;2023-09-19T00:33:21;13.48;;;11.02;;
70592;SDS011;58294;42.988;20.338;2023-09-19T00:35:48;15.15;;;11.48;;
70592;SDS011;58294;42.988;20.338;2023-09-19T00:38:14;13.90;;;11.80;;
70592;SDS011;58294;42.988;20.338;2023-09-19T00:40:45;14.45;;;11.85;;
70592;SDS011;58294;42.988;20.338;2023-09-19T00:43:11;13.88;;;11.63;;
70592;SDS011;58294;42.988;20.338;2023-09-19T00:45:38;18.38;;;12.45;;
70592;SDS011;58294;42.988;20.338;2023-09-19T00:48:07;12.57;;;11.30;;
70592;SDS011;58294;42.988;20.338;2023-09-19T00:50:34;13.40;;;11.23;;
70592;SDS011;58294;42.988;20.338;2023-09-19T00:53:01;15.60;;;11.85;;
70592;SDS011;58294;42.988;20.338;2023-09-19T00:55:38;15.50;;;12.40;;
70592;SDS011;58294;42.988;20.338;2023-09-19T00:58:05;14.90;;;11.00;;
70592;SDS011;58294;42.988;20.338;2023-09-19T01:00:32;11.80;;;10.55;;
70592;SDS011;58294;42.988;20.338;2023-09-19T01:03:01;15.82;;;12.52;;
70592;SDS011;58294;42.988;20.338;2023-09-19T01:05:28;15.02;;;13.02;;
70592;SDS011;58294;42.988;20.338;2023-09-19T01:07:57;16.50;;;14.43;;
70592;SDS011;58294;42.988;20.338;2023-09-19T01:10:23;19.75;;;16.40;;
70592;SDS011;58294;42.988;20.338;2023-09-19T01:21:16;19.75;;;14.68;;
70592;SDS011;58294;42.988;20.338;2023-09-19T01:32:08;19.30;;;14.88;;
70592;SDS011;58294;42.988;20.338;2023-09-19T01:34:44;16.95;;;13.70;;
70592;SDS011;58294;42.988;20.338;2023-09-19T01:37:15;15.45;;;12.82;;
70592;SDS011;58294;42.988;20.338;2023-09-19T01:39:52;17.25;;;12.85;;
70592;SDS011;58294;42.988;20.338;2023-09-19T01:42:28;15.63;;;14.00;;
70592;SDS011;58294;42.988;20.338;2023-09-19T01:45:22;22.70;;;14.70;;
70592;SDS011;58294;42.988;20.338;2023-09-19T01:53:27;23.88;;;15.70;;
70592;SDS011;58294;42.988;20.338;2023-09-19T01:55:53;20.17;;;13.00;;
70592;SDS011;58294;42.988;20.338;2023-09-19T02:00:55;16.08;;;12.05;;
70592;SDS011;58294;42.988;20.338;2023-09-19T02:03:23;15.98;;;12.25;;
70592;SDS011;58294;42.988;20.338;2023-09-19T02:05:53;16.17;;;13.32;;
70592;SDS011;58294;42.988;20.338;2023-09-19T02:08:19;16.40;;;12.30;;
70592;SDS011;58294;42.988;20.338;2023-09-19T02:10:49;16.40;;;13.35;;
70592;SDS011;58294;42.988;20.338;2023-09-19T02:13:18;18.35;;;13.02;;
70592;SDS011;58294;42.988;20.338;2023-09-19T02:15:45;14.15;;;12.65;;
70592;SDS011;58294;42.988;20.338;2023-09-19T02:18:12;16.02;;;12.55;;
70592;SDS011;58294;42.988;20.338;2023-09-19T02:20:41;15.48;;;12.45;;
70592;SDS011;58294;42.988;20.338;2023-09-19T02:23:08;17.65;;;13.40;;
70592;SDS011;58294;42.988;20.338;2023-09-19T02:25:35;13.60;;;12.20;;
70592;SDS011;58294;42.988;20.338;2023-09-19T02:28:03;14.82;;;12.50;;
70592;SDS011;58294;42.988;20.338;2023-09-19T02:30:29;15.68;;;12.65;;
70592;SDS011;58294;42.988;20.338;2023-09-19T02:32:55;14.73;;;12.18;;
70592;SDS011;58294;42.988;20.338;2023-09-19T02:35:21;16.02;;;12.43;;
70592;SDS011;58294;42.988;20.338;2023-09-19T02:37:47;14.85;;;13.15;;
70592;SDS011;58294;42.988;20.338;2023-09-19T02:40:14;14.18;;;12.68;;
70592;SDS011;58294;42.988;20.338;2023-09-19T02:42:54;14.15;;;12.65;;
70592;SDS011;58294;42.988;20.338;2023-09-19T02:45:20;15.35;;;13.52;;
70592;SDS011;58294;42.988;20.338;2023-09-19T02:47:47;17.58;;;13.75;;
70592;SDS011;58294;42.988;20.338;2023-09-19T02:50:14;17.83;;;15.05;;
70592;SDS011;58294;42.988;20.338;2023-09-19T02:52:41;18.15;;;14.70;;
70592;SDS011;58294;42.988;20.338;2023-09-19T02:55:14;18.90;;;15.07;;
70592;SDS011;58294;42.988;20.338;2023-09-19T02:57:45;17.35;;;14.80;;
70592;SDS011;58294;42.988;20.338;2023-09-19T03:00:12;17.58;;;14.95;;
70592;SDS011;58294;42.988;20.338;2023-09-19T03:02:38;19.63;;;16.23;;
70592;SDS011;58294;42.988;20.338;2023-09-19T03:05:06;23.98;;;18.95;;
70592;SDS011;58294;42.988;20.338;2023-09-19T03:07:32;21.17;;;17.42;;
70592;SDS011;58294;42.988;20.338;2023-09-19T03:09:58;17.30;;;13.43;;
70592;SDS011;58294;42.988;20.338;2023-09-19T03:12:25;16.60;;;14.35;;
70592;SDS011;58294;42.988;20.338;2023-09-19T03:14:52;16.58;;;13.50;;
70592;SDS011;58294;42.988;20.338;2023-09-19T03:17:17;18.42;;;14.20;;
70592;SDS011;58294;42.988;20.338;2023-09-19T03:19:45;15.05;;;13.45;;
70592;SDS011;58294;42.988;20.338;2023-09-19T03:22:28;16.38;;;13.70;;
70592;SDS011;58294;42.988;20.338;2023-09-19T03:24:54;22.70;;;15.88;;
70592;SDS011;58294;42.988;20.338;2023-09-19T03:27:20;17.45;;;14.60;;
70592;SDS011;58294;42.988;20.338;2023-09-19T03:29:46;20.40;;;14.32;;
70592;SDS011;58294;42.988;20.338;2023-09-19T03:32:12;16.20;;;14.48;;
70592;SDS011;58294;42.988;20.338;2023-09-19T03:34:38;17.73;;;14.07;;
70592;SDS011;58294;42.988;20.338;2023-09-19T03:37:09;16.65;;;14.85;;
70592;SDS011;58294;42.988;20.338;2023-09-19T03:39:35;18.52;;;13.65;;
70592;SDS011;58294;42.988;20.338;2023-09-19T03:42:01;22.05;;;15.93;;
70592;SDS011;58294;42.988;20.338;2023-09-19T03:44:29;17.95;;;15.88;;
70592;SDS011;58294;42.988;20.338;2023-09-19T03:46:55;20.27;;;16.67;;
70592;SDS011;58294;42.988;20.338;2023-09-19T03:49:22;18.48;;;16.02;;
70592;SDS011;58294;42.988;20.338;2023-09-19T03:51:48;17.42;;;14.55;;
70592;SDS011;58294;42.988;20.338;2023-09-19T03:54:14;16.95;;;15.10;;
70592;SDS011;58294;42.988;20.338;2023-09-19T03:56:39;21.33;;;15.93;;
70592;SDS011;58294;42.988;20.338;2023-09-19T03:59:05;18.27;;;16.38;;
70592;SDS011;58294;42.988;20.338;2023-09-19T04:01:33;20.95;;;16.77;;
70592;SDS011;58294;42.988;20.338;2023-09-19T04:03:59;22.08;;;15.75;;
70592;SDS011;58294;42.988;20.338;2023-09-19T04:06:33;22.77;;;17.87;;
70592;SDS011;58294;42.988;20.338;2023-09-19T04:09:00;19.55;;;16.33;;
70592;SDS011;58294;42.988;20.338;2023-09-19T04:11:27;22.00;;;16.52;;
70592;SDS011;58294;42.988;20.338;2023-09-19T04:13:52;19.02;;;16.30;;
70592;SDS011;58294;42.988;20.338;2023-09-19T04:16:18;20.02;;;17.17;;
70592;SDS011;58294;42.988;20.338;2023-09-19T04:18:44;22.58;;;16.58;;
70592;SDS011;58294;42.988;20.338;2023-09-19T04:21:10;20.05;;;16.65;;
70592;SDS011;58294;42.988;20.338;2023-09-19T04:23:36;18.60;;;15.57;;
70592;SDS011;58294;42.988;20.338;2023-09-19T04:26:02;25.65;;;19.67;;
70592;SDS011;58294;42.988;20.338;2023-09-19T04:28:29;29.73;;;24.13;;
70592;SDS011;58294;42.988;20.338;2023-09-19T04:30:56;30.42;;;22.85;;
70592;SDS011;58294;42.988;20.338;2023-09-19T04:33:24;23.73;;;21.17;;
70592;SDS011;58294;42.988;20.338;2023-09-19T04:35:52;28.30;;;22.02;;
70592;SDS011;58294;42.988;20.338;2023-09-19T04:38:18;28.00;;;20.58;;
70592;SDS011;58294;42.988;20.338;2023-09-19T04:40:45;18.35;;;15.73;;
70592;SDS011;58294;42.988;20.338;2023-09-19T04:43:11;25.77;;;19.98;;
70592;SDS011;58294;42.988;20.338;2023-09-19T04:45:38;26.60;;;21.75;;
70592;SDS011;58294;42.988;20.338;2023-09-19T04:48:04;26.35;;;19.70;;
70592;SDS011;58294;42.988;20.338;2023-09-19T04:50:33;28.50;;;20.73;;
70592;SDS011;58294;42.988;20.338;2023-09-19T04:53:00;28.90;;;22.23;;
70592;SDS011;58294;42.988;20.338;2023-09-19T04:55:26;21.42;;;18.80;;
70592;SDS011;58294;42.988;20.338;2023-09-19T04:57:52;19.80;;;16.58;;
70592;SDS011;58294;42.988;20.338;2023-09-19T05:00:22;19.23;;;15.85;;
70592;SDS011;58294;42.988;20.338;2023-09-19T05:02:54;21.52;;;17.58;;
70592;SDS011;58294;42.988;20.338;2023-09-19T05:05:21;19.50;;;17.00;;
70592;SDS011;58294;42.988;20.338;2023-09-19T05:07:48;34.45;;;22.17;;
70592;SDS011;58294;42.988;20.338;2023-09-19T05:10:16;23.00;;;19.38;;
70592;SDS011;58294;42.988;20.338;2023-09-19T05:12:44;24.73;;;17.35;;
70592;SDS011;58294;42.988;20.338;2023-09-19T05:15:13;23.08;;;18.33;;
70592;SDS011;58294;42.988;20.338;2023-09-19T05:17:47;30.10;;;19.38;;
70592;SDS011;58294;42.988;20.338;2023-09-19T05:20:17;24.48;;;19.77;;
70592;SDS011;58294;42.988;20.338;2023-09-19T05:23:00;25.08;;;19.13;;
70592;SDS011;58294;42.988;20.338;2023-09-19T05:25:28;26.92;;;20.40;;
70592;SDS011;58294;42.988;20.338;2023-09-19T05:27:57;22.13;;;18.77;;
70592;SDS011;58294;42.988;20.338;2023-09-19T05:30:24;23.42;;;20.52;;
70592;SDS011;58294;42.988;20.338;2023-09-19T05:32:52;26.30;;;20.30;;
70592;SDS011;58294;42.988;20.338;2023-09-19T05:35:19;26.20;;;21.77;;
70592;SDS011;58294;42.988;20.338;2023-09-19T05:37:47;27.13;;;21.08;;
70592;SDS011;58294;42.988;20.338;2023-09-19T05:40:16;32.65;;;23.75;;
70592;SDS011;58294;42.988;20.338;2023-09-19T05:42:42;33.10;;;23.10;;
70592;SDS011;58294;42.988;20.338;2023-09-19T05:45:09;28.05;;;21.80;;
70592;SDS011;58294;42.988;20.338;2023-09-19T05:47:41;34.35;;;25.20;;
70592;SDS011;58294;42.988;20.338;2023-09-19T05:50:11;33.65;;;23.75;;
70592;SDS011;58294;42.988;20.338;2023-09-19T05:52:38;29.05;;;23.60;;
70592;SDS011;58294;42.988;20.338;2023-09-19T05:55:04;27.60;;;21.73;;
70592;SDS011;58294;42.988;20.338;2023-09-19T05:57:32;26.52;;;21.02;;
70592;SDS011;58294;42.988;20.338;2023-09-19T06:00:00;27.73;;;21.00;;
70592;SDS011;58294;42.988;20.338;2023-09-19T06:02:27;27.25;;;19.83;;
70592;SDS011;58294;42.988;20.338;2023-09-19T06:04:55;30.58;;;22.23;;
70592;SDS011;58294;42.988;20.338;2023-09-19T06:07:21;25.83;;;19.60;;
70592;SDS011;58294;42.988;20.338;2023-09-19T06:09:51;26.73;;;19.85;;
70592;SDS011;58294;42.988;20.338;2023-09-19T06:12:18;22.25;;;17.98;;
70592;SDS011;58294;42.988;20.338;2023-09-19T06:14:44;44.13;;;33.60;;
70592;SDS011;58294;42.988;20.338;2023-09-19T06:17:11;34.20;;;26.38;;
70592;SDS011;58294;42.988;20.338;2023-09-19T06:19:37;22.10;;;18.58;;
70592;SDS011;58294;42.988;20.338;2023-09-19T06:22:02;21.08;;;15.07;;
70592;SDS011;58294;42.988;20.338;2023-09-19T06:24:28;37.85;;;30.38;;
70592;SDS011;58294;42.988;20.338;2023-09-19T06:26:54;28.52;;;22.45;;
70592;SDS011;58294;42.988;20.338;2023-09-19T06:29:20;37.15;;;23.05;;
70592;SDS011;58294;42.988;20.338;2023-09-19T06:31:48;39.35;;;22.25;;
70592;SDS011;58294;42.988;20.338;2023-09-19T06:34:14;26.83;;;23.35;;
70592;SDS011;58294;42.988;20.338;2023-09-19T06:36:43;33.50;;;28.13;;
70592;SDS011;58294;42.988;20.338;2023-09-19T06:39:09;27.35;;;21.92;;
70592;SDS011;58294;42.988;20.338;2023-09-19T06:41:36;27.40;;;20.10;;
70592;SDS011;58294;42.988;20.338;2023-09-19T06:44:04;24.65;;;19.33;;
70592;SDS011;58294;42.988;20.338;2023-09-19T06:46:30;23.83;;;19.77;;
70592;SDS011;58294;42.988;20.338;2023-09-19T06:49:00;26.20;;;19.23;;
70592;SDS011;58294;42.988;20.338;2023-09-19T06:51:31;28.80;;;19.17;;
70592;SDS011;58294;42.988;20.338;2023-09-19T06:54:00;24.83;;;18.15;;
70592;SDS011;58294;42.988;20.338;2023-09-19T06:56:26;22.90;;;18.05;;
70592;SDS011;58294;42.988;20.338;2023-09-19T06:58:52;23.05;;;17.38;;
70592;SDS011;58294;42.988;20.338;2023-09-19T07:01:18;26.88;;;19.05;;
70592;SDS011;58294;42.988;20.338;2023-09-19T07:03:44;25.13;;;19.25;;
70592;SDS011;58294;42.988;20.338;2023-09-19T07:06:11;24.52;;;19.27;;
70592;SDS011;58294;42.988;20.338;2023-09-19T07:08:36;23.40;;;20.90;;
70592;SDS011;58294;42.988;20.338;2023-09-19T07:11:03;23.30;;;20.65;;
70592;SDS011;58294;42.988;20.338;2023-09-19T07:13:31;24.75;;;20.02;;
70592;SDS011;58294;42.988;20.338;2023-09-19T07:15:58;23.73;;;19.45;;
70592;SDS011;58294;42.988;20.338;2023-09-19T07:18:24;22.23;;;19.88;;
70592;SDS011;58294;42.988;20.338;2023-09-19T07:20:50;30.92;;;20.92;;
70592;SDS011;58294;42.988;20.338;2023-09-19T07:23:26;25.38;;;18.73;;
70592;SDS011;58294;42.988;20.338;2023-09-19T07:25:52;23.38;;;18.88;;
70592;SDS011;58294;42.988;20.338;2023-09-19T07:50:39;22.67;;;20.05;;
70592;SDS011;58294;42.988;20.338;2023-09-19T07:53:05;22.30;;;17.85;;
70592;SDS011;58294;42.988;20.338;2023-09-19T07:55:31;19.60;;;16.20;;
70592;SDS011;58294;42.988;20.338;2023-09-19T07:58:00;20.42;;;17.30;;
70592;SDS011;58294;42.988;20.338;2023-09-19T08:00:25;19.77;;;17.65;;
70592;SDS011;58294;42.988;20.338;2023-09-19T08:02:51;20.90;;;17.63;;
70592;SDS011;58294;42.988;20.338;2023-09-19T08:05:17;25.65;;;18.35;;
70592;SDS011;58294;42.988;20.338;2023-09-19T08:07:44;28.77;;;20.70;;
70592;SDS011;58294;42.988;20.338;2023-09-19T08:10:14;22.73;;;19.75;;
70592;SDS011;58294;42.988;20.338;2023-09-19T08:12:41;30.45;;;25.50;;
70592;SDS011;58294;42.988;20.338;2023-09-19T08:15:18;26.25;;;22.08;;
70592;SDS011;58294;42.988;20.338;2023-09-19T08:17:45;27.57;;;21.33;;
70592;SDS011;58294;42.988;20.338;2023-09-19T08:20:11;22.00;;;18.88;;
70592;SDS011;58294;42.988;20.338;2023-09-19T08:22:47;22.10;;;18.60;;
70592;SDS011;58294;42.988;20.338;2023-09-19T08:25:15;20.25;;;17.23;;
70592;SDS011;58294;42.988;20.338;2023-09-19T08:27:44;21.73;;;15.68;;
70592;SDS011;58294;42.988;20.338;2023-09-19T08:30:13;22.88;;;17.58;;
70592;SDS011;58294;42.988;20.338;2023-09-19T08:32:40;19.33;;;15.35;;
70592;SDS011;58294;42.988;20.338;2023-09-19T08:35:08;20.98;;;16.85;;
70592;SDS011;58294;42.988;20.338;2023-09-19T08:37:34;24.25;;;17.42;;
70592;SDS011;58294;42.988;20.338;2023-09-19T08:40:00;21.38;;;17.20;;
70592;SDS011;58294;42.988;20.338;2023-09-19T08:42:27;19.90;;;16.55;;
70592;SDS011;58294;42.988;20.338;2023-09-19T08:44:53;16.30;;;14.63;;
70592;SDS011;58294;42.988;20.338;2023-09-19T08:47:25;14.95;;;13.02;;
70592;SDS011;58294;42.988;20.338;2023-09-19T08:50:00;19.23;;;13.63;;
70592;SDS011;58294;42.988;20.338;2023-09-19T08:52:32;16.35;;;12.27;;
70592;SDS011;58294;42.988;20.338;2023-09-19T08:55:06;18.00;;;13.02;;
70592;SDS011;58294;42.988;20.338;2023-09-19T08:57:33;19.33;;;13.02;;
70592;SDS011;58294;42.988;20.338;2023-09-19T09:00:01;15.30;;;13.10;;
70592;SDS011;58294;42.988;20.338;2023-09-19T09:02:35;20.92;;;13.27;;
70592;SDS011;58294;42.988;20.338;2023-09-19T09:05:08;17.23;;;13.27;;
70592;SDS011;58294;42.988;20.338;2023-09-19T09:07:37;19.30;;;14.77;;
70592;SDS011;58294;42.988;20.338;2023-09-19T09:10:04;17.60;;;12.88;;
70592;SDS011;58294;42.988;20.338;2023-09-19T09:12:30;15.45;;;12.88;;
70592;SDS011;58294;42.988;20.338;2023-09-19T09:14:56;16.90;;;13.30;;
70592;SDS011;58294;42.988;20.338;2023-09-19T09:17:25;19.85;;;12.30;;
70592;SDS011;58294;42.988;20.338;2023-09-19T09:19:52;17.15;;;12.02;;
70592;SDS011;58294;42.988;20.338;2023-09-19T09:22:18;15.02;;;10.82;;
70592;SDS011;58294;42.988;20.338;2023-09-19T09:24:53;13.95;;;11.23;;
70592;SDS011;58294;42.988;20.338;2023-09-19T09:27:23;16.02;;;11.40;;
70592;SDS011;58294;42.988;20.338;2023-09-19T09:29:50;15.60;;;10.93;;
70592;SDS011;58294;42.988;20.338;2023-09-19T09:34:52;14.23;;;11.57;;
70592;SDS011;58294;42.988;20.338;2023-09-19T09:37:20;16.85;;;12.20;;
70592;SDS011;58294;42.988;20.338;2023-09-19T09:42:31;14.77;;;10.75;;
70592;SDS011;58294;42.988;20.338;2023-09-19T09:45:17;15.27;;;10.13;;
70592;SDS011;58294;42.988;20.338;2023-09-19T09:50:27;14.82;;;9.23;;
70592;SDS011;58294;42.988;20.338;2023-09-19T09:52:57;13.32;;;9.93;;
70592;SDS011;58294;42.988;20.338;2023-09-19T09:58:33;16.23;;;10.10;;
70592;SDS011;58294;42.988;20.338;2023-09-19T10:01:05;12.60;;;8.30;;
70592;SDS011;58294;42.988;20.338;2023-09-19T10:03:37;16.90;;;9.38;;
70592;SDS011;58294;42.988;20.338;2023-09-19T10:06:06;16.42;;;9.25;;
70592;SDS011;58294;42.988;20.338;2023-09-19T10:11:45;19.67;;;7.80;;
70592;SDS011;58294;42.988;20.338;2023-09-19T10:14:16;19.67;;;8.70;;
70592;SDS011;58294;42.988;20.338;2023-09-19T10:16:48;17.20;;;8.52;;
70592;SDS011;58294;42.988;20.338;2023-09-19T10:19:21;17.02;;;7.60;;
70592;SDS011;58294;42.988;20.338;2023-09-19T10:32:24;18.85;;;8.18;;
70592;SDS011;58294;42.988;20.338;2023-09-19T10:34:52;17.40;;;9.05;;
70592;SDS011;58294;42.988;20.338;2023-09-19T10:37:20;17.95;;;8.02;;
70592;SDS011;58294;42.988;20.338;2023-09-19T10:39:50;17.60;;;8.75;;
70592;SDS011;58294;42.988;20.338;2023-09-19T10:42:20;17.02;;;8.73;;
70592;SDS011;58294;42.988;20.338;2023-09-19T10:44:51;15.10;;;8.35;;
70592;SDS011;58294;42.988;20.338;2023-09-19T10:47:23;14.87;;;8.10;;
70592;SDS011;58294;42.988;20.338;2023-09-19T10:49:49;22.33;;;9.80;;
70592;SDS011;58294;42.988;20.338;2023-09-19T10:52:15;18.95;;;10.15;;
70592;SDS011;58294;42.988;20.338;2023-09-19T10:54:53;20.88;;;11.90;;
70592;SDS011;58294;42.988;20.338;2023-09-19T10:57:22;21.45;;;12.65;;
70592;SDS011;58294;42.988;20.338;2023-09-19T11:00:07;25.90;;;13.40;;
70592;SDS011;58294;42.988;20.338;2023-09-19T11:05:37;15.32;;;8.02;;
70592;SDS011;58294;42.988;20.338;2023-09-19T11:08:06;10.40;;;7.30;;
70592;SDS011;58294;42.988;20.338;2023-09-19T11:13:26;17.98;;;7.55;;
70592;SDS011;58294;42.988;20.338;2023-09-19T11:19:10;14.15;;;8.68;;
70592;SDS011;58294;42.988;20.338;2023-09-19T11:26:49;15.13;;;7.68;;
70592;SDS011;58294;42.988;20.338;2023-09-19T11:29:25;16.15;;;7.60;;
70592;SDS011;58294;42.988;20.338;2023-09-19T11:31:56;14.95;;;7.38;;
70592;SDS011;58294;42.988;20.338;2023-09-19T11:39:40;12.68;;;6.97;;
70592;SDS011;58294;42.988;20.338;2023-09-19T11:42:45;23.00;;;10.35;;
70592;SDS011;58294;42.988;20.338;2023-09-19T11:48:12;20.08;;;11.45;;
70592;SDS011;58294;42.988;20.338;2023-09-19T11:50:41;15.63;;;9.15;;
70592;SDS011;58294;42.988;20.338;2023-09-19T11:53:10;17.63;;;8.70;;
70592;SDS011;58294;42.988;20.338;2023-09-19T11:55:39;13.35;;;6.70;;
70592;SDS011;58294;42.988;20.338;2023-09-19T11:58:09;18.75;;;8.15;;
70592;SDS011;58294;42.988;20.338;2023-09-19T12:00:38;17.75;;;8.30;;
70592;SDS011;58294;42.988;20.338;2023-09-19T12:03:09;15.93;;;7.30;;
70592;SDS011;58294;42.988;20.338;2023-09-19T12:05:36;17.00;;;7.47;;
70592;SDS011;58294;42.988;20.338;2023-09-19T12:08:03;18.80;;;6.78;;
70592;SDS011;58294;42.988;20.338;2023-09-19T12:10:33;18.08;;;7.22;;
70592;SDS011;58294;42.988;20.338;2023-09-19T12:13:09;14.13;;;7.05;;
70592;SDS011;58294;42.988;20.338;2023-09-19T12:15:39;13.40;;;6.60;;
70592;SDS011;58294;42.988;20.338;2023-09-19T12:18:07;13.40;;;6.25;;
70592;SDS011;58294;42.988;20.338;2023-09-19T12:20:43;12.52;;;6.53;;
70592;SDS011;58294;42.988;20.338;2023-09-19T12:23:15;11.18;;;6.68;;
70592;SDS011;58294;42.988;20.338;2023-09-19T12:25:42;17.17;;;8.10;;
70592;SDS011;58294;42.988;20.338;2023-09-19T12:28:11;16.10;;;7.47;;
70592;SDS011;58294;42.988;20.338;2023-09-19T12:30:37;15.82;;;7.18;;
70592;SDS011;58294;42.988;20.338;2023-09-19T12:33:14;23.63;;;8.57;;
70592;SDS011;58294;42.988;20.338;2023-09-19T12:35:50;16.52;;;6.68;;
70592;SDS011;58294;42.988;20.338;2023-09-19T12:38:25;17.42;;;7.18;;
70592;SDS011;58294;42.988;20.338;2023-09-19T12:40:54;24.25;;;7.25;;
70592;SDS011;58294;42.988;20.338;2023-09-19T12:43:21;18.25;;;7.93;;
70592;SDS011;58294;42.988;20.338;2023-09-19T12:45:48;13.68;;;6.45;;
70592;SDS011;58294;42.988;20.338;2023-09-19T12:48:24;11.70;;;6.10;;
70592;SDS011;58294;42.988;20.338;2023-09-19T12:51:07;17.75;;;7.68;;
70592;SDS011;58294;42.988;20.338;2023-09-19T12:53:47;21.20;;;7.43;;
70592;SDS011;58294;42.988;20.338;2023-09-19T12:56:22;13.52;;;7.15;;
70592;SDS011;58294;42.988;20.338;2023-09-19T12:58:51;12.32;;;6.13;;
70592;SDS011;58294;42.988;20.338;2023-09-19T13:01:22;16.75;;;6.65;;
70592;SDS011;58294;42.988;20.338;2023-09-19T13:06:43;19.13;;;7.45;;
70592;SDS011;58294;42.988;20.338;2023-09-19T13:09:10;16.33;;;6.93;;
70592;SDS011;58294;42.988;20.338;2023-09-19T13:11:37;15.07;;;5.97;;
70592;SDS011;58294;42.988;20.338;2023-09-19T13:14:19;20.75;;;10.77;;
70592;SDS011;58294;42.988;20.338;2023-09-19T13:19:36;21.48;;;10.77;;
70592;SDS011;58294;42.988;20.338;2023-09-19T13:25:01;15.90;;;10.60;;
70592;SDS011;58294;42.988;20.338;2023-09-19T13:27:29;14.32;;;10.00;;
70592;SDS011;58294;42.988;20.338;2023-09-19T13:29:54;15.82;;;9.57;;
70592;SDS011;58294;42.988;20.338;2023-09-19T13:32:20;16.60;;;9.93;;
70592;SDS011;58294;42.988;20.338;2023-09-19T13:34:47;11.98;;;9.85;;
70592;SDS011;58294;42.988;20.338;2023-09-19T13:37:13;13.32;;;9.93;;
70592;SDS011;58294;42.988;20.338;2023-09-19T13:39:41;14.13;;;10.10;;
70592;SDS011;58294;42.988;20.338;2023-09-19T13:42:12;12.70;;;9.82;;
70592;SDS011;58294;42.988;20.338;2023-09-19T13:44:38;16.02;;;10.20;;
70592;SDS011;58294;42.988;20.338;2023-09-19T13:47:06;13.68;;;10.20;;
70592;SDS011;58294;42.988;20.338;2023-09-19T13:49:38;14.57;;;10.60;;
70592;SDS011;58294;42.988;20.338;2023-09-19T13:52:04;16.30;;;10.73;;
70592;SDS011;58294;42.988;20.338;2023-09-19T13:54:30;15.07;;;10.93;;
70592;SDS011;58294;42.988;20.338;2023-09-19T13:56:56;16.10;;;11.32;;
70592;SDS011;58294;42.988;20.338;2023-09-19T13:59:21;18.67;;;10.77;;
70592;SDS011;58294;42.988;20.338;2023-09-19T14:01:51;14.52;;;9.95;;
70592;SDS011;58294;42.988;20.338;2023-09-19T14:04:18;14.90;;;10.88;;
70592;SDS011;58294;42.988;20.338;2023-09-19T14:06:47;15.75;;;10.75;;
70592;SDS011;58294;42.988;20.338;2023-09-19T14:09:13;15.15;;;8.63;;
70592;SDS011;58294;42.988;20.338;2023-09-19T14:11:39;14.77;;;8.23;;
70592;SDS011;58294;42.988;20.338;2023-09-19T14:14:05;12.90;;;8.40;;
70592;SDS011;58294;42.988;20.338;2023-09-19T14:16:31;12.70;;;7.28;;
70592;SDS011;58294;42.988;20.338;2023-09-19T14:18:58;9.25;;;5.43;;
70592;SDS011;58294;42.988;20.338;2023-09-19T14:21:25;20.85;;;6.93;;
70592;SDS011;58294;42.988;20.338;2023-09-19T14:23:51;12.75;;;5.93;;
70592;SDS011;58294;42.988;20.338;2023-09-19T14:26:16;15.02;;;7.07;;
70592;SDS011;58294;42.988;20.338;2023-09-19T14:28:43;16.48;;;7.38;;
70592;SDS011;58294;42.988;20.338;2023-09-19T14:31:10;13.07;;;6.65;;
70592;SDS011;58294;42.988;20.338;2023-09-19T14:33:36;11.32;;;5.90;;
70592;SDS011;58294;42.988;20.338;2023-09-19T14:36:03;10.57;;;6.05;;
70592;SDS011;58294;42.988;20.338;2023-09-19T14:38:32;9.27;;;6.43;;
70592;SDS011;58294;42.988;20.338;2023-09-19T14:40:59;15.35;;;6.45;;
70592;SDS011;58294;42.988;20.338;2023-09-19T14:43:28;11.70;;;7.30;;
70592;SDS011;58294;42.988;20.338;2023-09-19T14:46:07;8.75;;;6.28;;
70592;SDS011;58294;42.988;20.338;2023-09-19T14:48:34;11.25;;;6.18;;
70592;SDS011;58294;42.988;20.338;2023-09-19T14:51:04;8.52;;;6.38;;
70592;SDS011;58294;42.988;20.338;2023-09-19T14:53:31;13.35;;;6.90;;
70592;SDS011;58294;42.988;20.338;2023-09-19T14:56:00;13.40;;;7.53;;
70592;SDS011;58294;42.988;20.338;2023-09-19T14:58:30;17.40;;;9.15;;
70592;SDS011;58294;42.988;20.338;2023-09-19T15:01:05;9.82;;;6.28;;
70592;SDS011;58294;42.988;20.338;2023-09-19T15:03:32;15.38;;;6.68;;
70592;SDS011;58294;42.988;20.338;2023-09-19T15:06:02;9.40;;;6.10;;
70592;SDS011;58294;42.988;20.338;2023-09-19T15:08:34;10.75;;;6.63;;
70592;SDS011;58294;42.988;20.338;2023-09-19T15:11:03;10.93;;;6.03;;
70592;SDS011;58294;42.988;20.338;2023-09-19T15:13:33;13.65;;;6.78;;
70592;SDS011;58294;42.988;20.338;2023-09-19T15:16:03;12.10;;;7.28;;
70592;SDS011;58294;42.988;20.338;2023-09-19T15:18:33;13.70;;;8.23;;
70592;SDS011;58294;42.988;20.338;2023-09-19T15:21:03;12.18;;;7.40;;
70592;SDS011;58294;42.988;20.338;2023-09-19T15:23:32;16.90;;;8.48;;
70592;SDS011;58294;42.988;20.338;2023-09-19T15:26:05;11.57;;;6.72;;
70592;SDS011;58294;42.988;20.338;2023-09-19T15:28:32;12.65;;;6.32;;
70592;SDS011;58294;42.988;20.338;2023-09-19T15:31:02;13.32;;;7.68;;
70592;SDS011;58294;42.988;20.338;2023-09-19T15:33:30;10.07;;;5.97;;
70592;SDS011;58294;42.988;20.338;2023-09-19T15:36:04;15.57;;;6.25;;
70592;SDS011;58294;42.988;20.338;2023-09-19T15:38:30;10.43;;;5.50;;
70592;SDS011;58294;42.988;20.338;2023-09-19T15:41:21;13.73;;;7.57;;
70592;SDS011;58294;42.988;20.338;2023-09-19T15:43:47;10.35;;;6.55;;
70592;SDS011;58294;42.988;20.338;2023-09-19T15:46:13;12.85;;;6.78;;
70592;SDS011;58294;42.988;20.338;2023-09-19T15:48:40;11.10;;;5.68;;
70592;SDS011;58294;42.988;20.338;2023-09-19T15:51:06;14.90;;;6.80;;
70592;SDS011;58294;42.988;20.338;2023-09-19T15:53:47;16.83;;;7.78;;
70592;SDS011;58294;42.988;20.338;2023-09-19T15:56:15;9.07;;;5.38;;
70592;SDS011;58294;42.988;20.338;2023-09-19T15:58:44;10.48;;;8.57;;
70592;SDS011;58294;42.988;20.338;2023-09-19T16:01:11;11.57;;;7.07;;
70592;SDS011;58294;42.988;20.338;2023-09-19T16:03:38;16.33;;;7.75;;
70592;SDS011;58294;42.988;20.338;2023-09-19T16:06:08;9.57;;;7.40;;